Somerset, NJ - U.S.A.

40° 30' 13"N, 74° 29' 17"W, Elevation 55 ft.

Thursday, May 7, 2015
5:36:00 AM (Eastern)

127th day of the year

Updated and refreshed every 2 minutes. Weather computer in use: Davis Vantage PRO2 Plus


Current Weather:

Current Today's Highs and Lows
Temperature 47.2°F (8.4°C) ↓ 52.0° 12:00 AM
47.2° 5:31 AM
Dew Point 44.5°F (6.9°C) ↓ 46.4° 12:00 AM
44.5° 5:31 AM
Humidity 90% ↑ 90% 4:37 AM
80% 12:00 AM
Wind Gust ENE 0 mph ENE 0 12:00 AM
ENE 0 12:00 AM
Wind Speed ENE 0 mph
Calm (0)
ENE 0 12:00 AM
ENE 0 12:00 AM
Precipitation 0.00" (0.00 mm) 1
Last 24 hours 0.01"
Instantaneous rate 0.00"/hr
Storm total 0.00"
0.00"2 12:00 AM
0.00"2 12:00 AM
Barometer 30.198" (1022.7 mb)
Steady
30.240" 12:14 AM
30.198" 4:29 AM
Wind Chill Gust 47°F (8°C) 52° 12:00 AM
47° 5:31 AM
Wind Chill Avg 47°F (8°C) 52° 12:00 AM
47° 5:31 AM
Heat Index 47°F (8.3°C) 52° 12:00 AM
47° 4:25 AM
Sunshine 0 W/m2
Sunshine minutes 0
0 12:00 AM
0 12:00 AM
UV Index  0.0 0.0 12:00 AM
0.0 12:00 AM
1. Daily total rainfall.
2. Maximum and minimum rainfall are the instantaneous rainfall rates.

'KSOM' METAR REPORT:

METAR KSOM 070936Z AUTO 00000KT 08/07 A3020 RMK AO1 SLP227 T00840069 

Yesterday's Weather and More...

Webcam
EBWeather Image

Video - Last 3 Hours

Video - Yesterday

NJ Region Surface Map
NJ Sfc Map

Weather Data from Somerset, NJ

Data generated by WxSolution Version 1.8.7.5, Build 2015.04.24.